Time;durP1;ratioP1;P1;durP2;ratioP2;P2;SDS_P1;SDS_P2;PMS_P1;PMS_P2;Temp;Humidity;BMP_temperature;BMP_pressure;BME280_temperature;BME280_humidity;BME280_pressure;Samples;Min_cycle;Max_cycle;Signal;HPM_P1;HPM_P2
2023/05/22 00:01:05;;;;;;;17.80;11.53;;;;;;;14.47;100.00;93582.34;5051232;28;20067;-63
2023/05/22 00:03:32;;;;;;;19.33;13.00;;;;;;;14.28;100.00;93584.19;5064986;28;20113;-63
2023/05/22 00:05:59;;;;;;;19.73;13.38;;;;;;;14.45;100.00;93584.78;5064602;28;20366;-57
2023/05/22 00:08:27;;;;;;;16.85;11.65;;;;;;;14.44;100.00;93578.47;5051358;28;20107;-63
2023/05/22 00:10:55;;;;;;;16.98;11.60;;;;;;;14.52;100.00;93579.75;5051459;28;20036;-60
2023/05/22 00:13:22;;;;;;;18.80;12.10;;;;;;;14.49;100.00;93577.16;5050758;28;20045;-61
2023/05/22 00:15:49;;;;;;;17.45;12.30;;;;;;;14.47;100.00;93574.06;5051281;28;20040;-59
2023/05/22 00:18:15;;;;;;;17.15;11.75;;;;;;;14.51;100.00;93581.00;5032720;28;20041;-60
2023/05/22 00:20:45;;;;;;;17.95;12.27;;;;;;;14.58;100.00;93580.00;5051105;28;20048;-63
2023/05/22 00:23:12;;;;;;;17.17;11.40;;;;;;;14.63;100.00;93582.19;5057729;28;20075;-63
2023/05/22 00:25:41;;;;;;;15.77;11.10;;;;;;;14.45;100.00;93579.28;5057540;28;20043;-59
2023/05/22 00:28:08;;;;;;;18.70;11.85;;;;;;;14.42;100.00;93583.69;5062784;28;20224;-60
2023/05/22 00:30:35;;;;;;;20.20;14.00;;;;;;;14.37;100.00;93575.97;5051013;28;20051;-59
2023/05/22 00:33:02;;;;;;;17.65;12.13;;;;;;;14.39;100.00;93579.06;5063522;28;20470;-63
2023/05/22 00:35:29;;;;;;;18.45;12.43;;;;;;;14.41;100.00;93582.16;5051045;28;20470;-60
2023/05/22 00:37:56;;;;;;;19.87;12.90;;;;;;;14.43;100.00;93578.91;5076255;28;20041;-58
2023/05/22 00:40:23;;;;;;;20.67;13.18;;;;;;;14.43;100.00;93579.72;5049117;28;20037;-59
2023/05/22 00:42:50;;;;;;;20.65;13.68;;;;;;;14.45;100.00;93576.50;5055929;28;20056;-60
2023/05/22 00:45:16;;;;;;;17.45;12.23;;;;;;;14.41;100.00;93582.16;5069413;28;20043;-59
2023/05/22 00:47:43;;;;;;;17.00;11.82;;;;;;;14.42;100.00;93586.44;5062505;28;20036;-62
2023/05/22 00:50:11;;;;;;;17.17;12.30;;;;;;;14.41;100.00;93582.16;5050092;28;20411;-59
2023/05/22 00:52:41;;;;;;;18.48;11.60;;;;;;;14.44;100.00;93586.00;5038016;28;20514;-59
2023/05/22 00:55:09;;;;;;;17.67;12.32;;;;;;;14.43;100.00;93584.44;5070101;28;20048;-60
2023/05/22 00:57:40;;;;;;;17.90;13.20;;;;;;;14.39;100.00;93590.09;5050692;28;20067;-61
2023/05/22 01:00:12;;;;;;;16.40;12.07;;;;;;;14.29;100.00;93599.53;5044070;28;20037;-59
2023/05/22 01:02:41;;;;;;;16.20;11.30;;;;;;;14.30;100.00;93599.06;5050870;28;20048;-60
2023/05/22 01:05:11;;;;;;;17.98;12.05;;;;;;;14.36;100.00;93602.03;5049822;28;20048;-59
2023/05/22 01:07:39;;;;;;;18.55;13.15;;;;;;;14.38;100.00;93607.88;5050357;28;20067;-58
2023/05/22 01:10:06;;;;;;;17.13;12.25;;;;;;;14.39;100.00;93601.91;5049482;28;20049;-59
2023/05/22 01:13:11;;;;;;;16.27;11.48;;;;;;;14.43;100.00;93607.31;5050059;28;20084;-59
2023/05/22 01:15:45;;;;;;;17.20;12.30;;;;;;;14.42;100.00;93616.81;5049282;28;20249;-62
2023/05/22 01:18:51;;;;;;;23.42;11.75;;;;;;;14.43;100.00;93614.81;5049935;28;20054;-59
2023/05/22 01:21:35;;;;;;;17.02;11.55;;;;;;;14.43;100.00;93618.38;5047515;28;20033;-62
2023/05/22 01:24:18;;;;;;;17.65;11.65;;;;;;;14.43;100.00;93618.38;5055637;28;20459;-59
2023/05/22 01:27:06;;;;;;;19.13;12.38;;;;;;;14.41;100.00;93608.97;5050039;28;20041;-62
2023/05/22 01:30:10;;;;;;;18.97;11.90;;;;;;;14.42;100.00;93614.03;5048917;28;20037;-60
2023/05/22 01:32:42;;;;;;;31.80;22.08;;;;;;;14.45;100.00;93610.41;5048749;28;20057;-63
2023/05/22 01:35:11;;;;;;;21.02;14.63;;;;;;;14.47;100.00;93619.00;5031434;28;20033;-59
2023/05/22 01:37:39;;;;;;;19.58;13.52;;;;;;;14.47;100.00;93612.72;5053570;28;20506;-59
2023/05/22 01:40:07;;;;;;;18.67;12.48;;;;;;;14.48;100.00;93619.78;5059385;28;20055;-58
2023/05/22 01:42:33;;;;;;;16.70;11.63;;;;;;;14.43;100.00;93614.81;5062311;28;20040;-59
2023/05/22 01:45:00;;;;;;;16.00;11.07;;;;;;;14.21;100.00;93623.84;5049159;28;20045;-60
2023/05/22 01:47:27;;;;;;;16.67;11.65;;;;;;;14.23;100.00;93624.16;5042316;28;20032;-60
2023/05/22 01:49:54;;;;;;;21.73;13.32;;;;;;;14.26;100.00;93614.97;5051488;28;20097;-62
2023/05/22 01:52:34;;;;;;;24.20;15.52;;;;;;;14.32;100.00;93617.94;5045013;28;20036;-59
2023/05/22 01:55:12;;;;;;;18.17;12.17;;;;;;;14.37;100.00;93612.63;5048788;28;20037;-63
2023/05/22 01:57:46;;;;;;;17.52;11.70;;;;;;;14.41;100.00;93620.00;5049308;28;20697;-62
2023/05/22 02:00:17;;;;;;;18.88;12.43;;;;;;;13.97;100.00;93621.47;5050654;28;20045;-59
2023/05/22 02:02:48;;;;;;;20.35;13.48;;;;;;;13.39;100.00;93628.03;5069452;28;20036;-62
2023/05/22 02:05:17;;;;;;;18.20;12.93;;;;;;;13.40;100.00;93634.31;5052994;28;20106;-59
2023/05/22 02:07:45;;;;;;;18.43;12.77;;;;;;;13.26;100.00;93640.22;5049196;28;20071;-60
2023/05/22 02:10:13;;;;;;;19.80;12.90;;;;;;;13.57;100.00;93632.97;5049659;28;20728;-61
2023/05/22 02:12:40;;;;;;;17.13;12.38;;;;;;;13.83;100.00;93629.44;5060721;28;20471;-63
2023/05/22 02:15:07;;;;;;;15.82;11.57;;;;;;;13.95;100.00;93628.66;5056534;28;20495;-60
2023/05/22 02:17:40;;;;;;;16.88;11.65;;;;;;;14.05;100.00;93622.00;5066041;28;20040;-60
2023/05/22 02:20:13;;;;;;;18.07;11.40;;;;;;;14.08;100.00;93621.09;5048311;28;20048;-62
2023/05/22 02:22:43;;;;;;;15.27;10.93;;;;;;;14.06;100.00;93618.03;5048561;28;20037;-59
2023/05/22 02:25:15;;;;;;;16.77;11.07;;;;;;;14.02;100.00;93617.38;5048089;28;20078;-61
2023/05/22 02:27:44;;;;;;;16.40;11.65;;;;;;;13.98;100.00;93617.50;5048523;28;20043;-61
2023/05/22 02:30:11;;;;;;;18.63;12.30;;;;;;;14.03;100.00;93616.16;5030459;28;20118;-62
2023/05/22 02:32:39;;;;;;;17.57;12.50;;;;;;;14.05;100.00;93610.97;5051496;28;20060;-60
2023/05/22 02:35:07;;;;;;;18.38;11.55;;;;;;;14.09;100.00;93611.63;5058185;28;20049;-60
2023/05/22 02:37:34;;;;;;;16.80;11.65;;;;;;;14.15;100.00;93609.06;5079265;28;20471;-60
2023/05/22 02:40:01;;;;;;;18.42;12.32;;;;;;;14.12;100.00;93610.72;5059320;28;20060;-59
2023/05/22 02:42:28;;;;;;;17.88;11.88;;;;;;;14.08;100.00;93607.31;5048178;28;20110;-61
2023/05/22 02:44:54;;;;;;;17.00;12.20;;;;;;;14.01;100.00;93609.56;5047299;28;20082;-59
2023/05/22 02:47:21;;;;;;;17.05;11.60;;;;;;;14.09;100.00;93610.84;5037541;28;20035;-58
2023/05/22 02:49:48;;;;;;;17.08;11.30;;;;;;;14.11;100.00;93614.69;5048424;28;20040;-61
2023/05/22 02:52:15;;;;;;;15.88;11.77;;;;;;;14.11;100.00;93611.19;5047910;28;20045;-59
2023/05/22 02:54:41;;;;;;;18.50;12.23;;;;;;;14.08;100.00;93612.81;5048125;28;20037;-58
2023/05/22 02:57:08;;;;;;;16.70;11.77;;;;;;;13.93;100.00;93612.53;5047843;28;20036;-58
2023/05/22 02:59:35;;;;;;;15.50;10.95;;;;;;;13.93;100.00;93614.53;5061423;28;20036;-58
2023/05/22 03:02:02;;;;;;;99.57;63.20;;;;;;;13.97;100.00;93607.66;5031834;28;20040;-60
2023/05/22 03:04:29;;;;;;;34.80;22.15;;;;;;;14.05;100.00;93605.44;5030569;28;20040;-57
2023/05/22 03:06:56;;;;;;;22.55;14.38;;;;;;;14.08;100.00;93606.53;5048071;28;20037;-61
2023/05/22 03:09:23;;;;;;;19.27;12.70;;;;;;;14.03;100.00;93610.66;5047631;28;20033;-61
2023/05/22 03:11:49;;;;;;;18.52;12.40;;;;;;;14.08;100.00;93609.31;5044432;28;20366;-58
2023/05/22 03:14:17;;;;;;;18.05;12.10;;;;;;;14.16;100.00;93605.09;5038933;28;20047;-58
2023/05/22 03:16:44;;;;;;;19.10;12.30;;;;;;;14.14;100.00;93611.03;5067376;28;20424;-58
2023/05/22 03:19:15;;;;;;;18.90;12.07;;;;;;;14.15;100.00;93603.56;5053549;28;20106;-61
2023/05/22 03:21:43;;;;;;;17.87;11.93;;;;;;;14.14;100.00;93605.53;5061351;28;20515;-60
2023/05/22 03:24:11;;;;;;;19.08;12.13;;;;;;;14.13;100.00;93603.22;5047556;28;20055;-58
2023/05/22 03:26:38;;;;;;;17.65;11.95;;;;;;;14.06;100.00;93606.97;5047964;28;20294;-63
2023/05/22 03:29:05;;;;;;;16.98;12.27;;;;;;;14.02;100.00;93608.31;5047390;28;20047;-61
2023/05/22 03:31:32;;;;;;;17.50;12.02;;;;;;;13.96;100.00;93600.63;5047762;28;20055;-61
2023/05/22 03:33:59;;;;;;;18.87;12.33;;;;;;;13.98;100.00;93600.16;5048096;28;20041;-61
2023/05/22 03:36:26;;;;;;;17.05;12.25;;;;;;;13.94;100.00;93597.53;5047100;28;20337;-61
2023/05/22 03:38:55;;;;;;;18.55;12.40;;;;;;;13.94;100.00;93603.06;5047764;28;20444;-57
2023/05/22 03:41:21;;;;;;;20.75;12.63;;;;;;;13.92;100.00;93604.69;5047215;28;20044;-57
2023/05/22 03:43:48;;;;;;;17.75;12.27;;;;;;;13.94;100.00;93600.31;5047493;28;20044;-58
2023/05/22 03:46:15;;;;;;;18.17;12.23;;;;;;;13.87;100.00;93605.28;5051645;28;20059;-64
2023/05/22 03:48:42;;;;;;;19.23;12.48;;;;;;;13.87;100.00;93597.00;5047676;28;20186;-59
2023/05/22 03:51:08;;;;;;;19.77;12.82;;;;;;;13.88;100.00;93595.78;5058685;28;20046;-58
2023/05/22 03:53:35;;;;;;;19.83;13.10;;;;;;;13.95;100.00;93595.56;5033566;28;20059;-57
2023/05/22 03:56:02;;;;;;;20.15;13.60;;;;;;;13.93;100.00;93593.22;5047374;28;20044;-58
2023/05/22 03:58:29;;;;;;;21.37;13.67;;;;;;;13.97;100.00;93595.88;5048927;28;20049;-59
2023/05/22 04:00:57;;;;;;;19.13;12.90;;;;;;;13.99;100.00;93596.97;5067661;28;20485;-61
2023/05/22 04:03:24;;;;;;;19.30;13.05;;;;;;;14.09;100.00;93597.06;5066531;28;20489;-57
2023/05/22 04:05:51;;;;;;;18.52;12.80;;;;;;;14.09;100.00;93594.31;5047980;28;20260;-60
2023/05/22 04:08:18;;;;;;;22.08;13.20;;;;;;;13.89;100.00;93602.84;5029272;28;20045;-61
2023/05/22 04:10:47;;;;;;;18.40;12.57;;;;;;;13.98;100.00;93592.69;5047636;28;20048;-60
2023/05/22 04:13:15;;;;;;;20.42;13.48;;;;;;;13.91;100.00;93601.19;5046929;28;20118;-56
2023/05/22 04:15:44;;;;;;;16.88;12.10;;;;;;;13.98;100.00;93606.47;5059482;28;20476;-58
2023/05/22 04:18:12;;;;;;;19.90;12.50;;;;;;;14.16;100.00;93600.31;5063582;28;20075;-58
2023/05/22 04:20:39;;;;;;;20.77;12.88;;;;;;;14.10;100.00;93609.63;5051403;28;20048;-60
2023/05/22 04:23:06;;;;;;;16.20;11.73;;;;;;;14.06;100.00;93606.22;5050322;28;20447;-57
2023/05/22 04:25:33;;;;;;;18.88;12.40;;;;;;;13.78;100.00;93619.72;5050931;28;20075;-60
2023/05/22 04:28:03;;;;;;;18.98;12.57;;;;;;;13.73;100.00;93615.53;5055500;28;20040;-61
2023/05/22 04:30:35;;;;;;;19.00;12.57;;;;;;;13.79;100.00;93618.53;5058338;28;20383;-58
2023/05/22 04:33:04;;;;;;;17.85;12.68;;;;;;;13.75;100.00;93626.91;5035989;28;20366;-61
2023/05/22 04:35:31;;;;;;;17.50;12.70;;;;;;;13.98;100.00;93628.53;5061173;28;20041;-57
2023/05/22 04:38:01;;;;;;;16.60;12.18;;;;;;;14.15;100.00;93625.63;5038179;28;20033;-57
2023/05/22 04:40:29;;;;;;;16.52;12.10;;;;;;;14.16;100.00;93629.91;5058493;28;21662;-57
2023/05/22 04:42:58;;;;;;;18.85;12.82;;;;;;;14.19;100.00;93637.31;5054186;28;20045;-59
2023/05/22 04:45:27;;;;;;;20.17;13.43;;;;;;;14.20;100.00;93638.84;5057597;28;20781;-62
2023/05/22 04:47:54;;;;;;;17.63;12.73;;;;;;;14.16;100.00;93643.72;5057828;28;20064;-60
2023/05/22 04:50:22;;;;;;;19.30;13.10;;;;;;;14.31;100.00;93644.78;5059081;28;20051;-57
2023/05/22 04:52:49;;;;;;;17.05;12.70;;;;;;;14.38;100.00;93655.56;5050296;28;20041;-59
2023/05/22 04:55:17;;;;;;;21.02;12.73;;;;;;;14.65;100.00;93651.56;5031884;28;20041;-59
2023/05/22 04:57:46;;;;;;;17.80;12.68;;;;;;;14.74;100.00;93643.31;5060497;28;20048;-59
2023/05/22 05:00:15;;;;;;;16.70;12.70;;;;;;;14.94;100.00;93647.75;5052009;28;20045;-59
2023/05/22 05:02:42;;;;;;;19.20;12.60;;;;;;;15.01;100.00;93650.28;5050345;28;20417;-60
2023/05/22 05:05:09;;;;;;;17.52;11.80;;;;;;;15.23;100.00;93655.78;5062652;28;20342;-60
2023/05/22 05:07:37;;;;;;;17.05;12.05;;;;;;;14.90;100.00;93649.88;5060160;28;20040;-61
2023/05/22 05:10:05;;;;;;;17.58;12.18;;;;;;;14.81;100.00;93655.34;5067340;28;20048;-63
2023/05/22 05:12:33;;;;;;;19.50;12.47;;;;;;;15.13;100.00;93649.44;5049819;28;20049;-59
2023/05/22 05:15:00;;;;;;;17.08;12.23;;;;;;;15.56;100.00;93647.78;5051761;28;20040;-56
2023/05/22 05:17:27;;;;;;;16.85;11.73;;;;;;;15.83;100.00;93653.91;5044092;28;20047;-62
2023/05/22 05:19:54;;;;;;;17.25;12.77;;;;;;;15.92;100.00;93649.19;5049661;28;20106;-57
2023/05/22 05:22:21;;;;;;;17.17;12.90;;;;;;;16.22;100.00;93652.34;5033874;28;20104;-59
2023/05/22 05:24:47;;;;;;;16.63;12.20;;;;;;;16.60;100.00;93648.38;5060542;28;20079;-60
2023/05/22 05:27:14;;;;;;;17.60;12.73;;;;;;;16.56;100.00;93642.22;5048982;28;20043;-63
2023/05/22 05:29:41;;;;;;;17.40;12.88;;;;;;;16.64;100.00;93653.75;5049853;28;20496;-58
2023/05/22 05:32:10;;;;;;;18.30;12.63;;;;;;;16.61;100.00;93657.47;5048870;28;20036;-61
2023/05/22 05:34:37;;;;;;;14.98;11.77;;;;;;;17.10;100.00;93645.44;5056535;28;20055;-58
2023/05/22 05:37:04;;;;;;;15.87;11.93;;;;;;;17.06;100.00;93645.59;5078195;28;20342;-58
2023/05/22 05:39:31;;;;;;;15.77;11.98;;;;;;;17.28;100.00;93650.19;5031920;28;20040;-58
2023/05/22 05:41:58;;;;;;;14.85;12.07;;;;;;;18.03;100.00;93655.06;5049237;28;20045;-61
2023/05/22 05:44:25;;;;;;;16.70;12.23;;;;;;;18.34;100.00;93662.28;5048140;28;20820;-59
2023/05/22 05:46:53;;;;;;;17.05;11.82;;;;;;;19.90;100.00;93649.03;5063427;28;20040;-61
2023/05/22 05:49:21;;;;;;;14.43;10.80;;;;;;;21.71;100.00;93662.38;5048743;28;20059;-62
2023/05/22 05:51:47;;;;;;;15.35;10.65;;;;;;;22.50;95.66;93646.97;5049271;28;20681;-62
2023/05/22 05:54:14;;;;;;;13.40;11.23;;;;;;;22.29;96.83;93646.34;5048576;28;20041;-58
2023/05/22 05:56:41;;;;;;;14.68;12.07;;;;;;;23.13;90.17;93645.22;5049352;28;20041;-59
2023/05/22 05:59:08;;;;;;;14.45;11.45;;;;;;;25.21;78.23;93651.94;5014805;28;20075;-60
2023/05/22 06:01:37;;;;;;;14.20;11.47;;;;;;;24.38;76.44;93646.84;5049056;28;20041;-62
2023/05/22 06:04:04;;;;;;;13.05;10.45;;;;;;;25.70;70.93;93652.22;5056581;28;20044;-59
2023/05/22 06:06:35;;;;;;;13.65;10.38;;;;;;;24.24;74.41;93647.91;5036170;28;20045;-61
2023/05/22 06:09:04;;;;;;;13.40;10.52;;;;;;;23.81;77.88;93651.75;5048496;28;20089;-60
2023/05/22 06:11:32;;;;;;;13.88;11.07;;;;;;;24.55;74.64;93651.69;5048644;28;20037;-58
2023/05/22 06:14:03;;;;;;;13.63;10.67;;;;;;;25.63;69.66;93652.75;5031261;28;20045;-61
2023/05/22 06:16:30;;;;;;;11.82;9.73;;;;;;;26.89;63.25;93646.31;5047519;28;20091;-59
2023/05/22 06:18:58;;;;;;;12.40;10.18;;;;;;;27.03;58.60;93650.75;5048773;28;20101;-58
2023/05/22 06:21:25;;;;;;;12.80;11.02;;;;;;;27.01;57.44;93658.97;5046967;28;20048;-59
2023/05/22 06:23:52;;;;;;;12.32;11.02;;;;;;;28.16;54.85;93651.28;5048503;28;20079;-62
2023/05/22 06:26:19;;;;;;;13.60;9.30;;;;;;;28.89;52.61;93655.63;5047853;28;20044;-60
2023/05/22 06:28:45;;;;;;;10.15;9.02;;;;;;;30.90;44.96;93645.19;5048613;28;20049;-63
2023/05/22 06:31:13;;;;;;;10.60;9.48;;;;;;;31.10;43.91;93645.69;5048030;28;20045;-59
2023/05/22 06:33:41;;;;;;;9.90;8.45;;;;;;;31.94;40.78;93650.97;5033688;28;20044;-59
2023/05/22 06:36:10;;;;;;;11.90;9.43;;;;;;;32.07;38.82;93647.22;5066561;28;20048;-59
2023/05/22 06:38:38;;;;;;;9.10;8.10;;;;;;;33.63;37.56;93645.25;5052898;28;20040;-60
2023/05/22 06:41:05;;;;;;;12.00;8.77;;;;;;;33.11;37.44;93642.72;5057339;28;20047;-59
2023/05/22 06:43:32;;;;;;;13.65;10.43;;;;;;;26.20;52.51;93650.31;5048092;28;20484;-60
2023/05/22 06:45:59;;;;;;;13.57;9.43;;;;;;;29.66;45.75;93643.28;5060242;28;20052;-64
2023/05/22 06:48:26;;;;;;;11.15;9.52;;;;;;;31.35;40.89;93643.16;5054325;28;20043;-60
2023/05/22 06:50:52;;;;;;;11.17;10.00;;;;;;;29.96;42.65;93650.59;5048438;28;20631;-63
2023/05/22 06:53:19;;;;;;;10.43;9.32;;;;;;;32.76;37.92;93648.06;5029759;28;20037;-59
2023/05/22 06:55:46;;;;;;;11.88;8.82;;;;;;;33.21;36.68;93643.63;5048096;28;20378;-59
2023/05/22 06:58:13;;;;;;;11.20;10.10;;;;;;;30.40;38.73;93644.41;5054845;28;20053;-61
2023/05/22 07:00:40;;;;;;;10.70;8.35;;;;;;;30.44;42.06;93644.81;5067940;28;20040;-63
2023/05/22 07:03:07;;;;;;;11.27;9.57;;;;;;;28.57;43.79;93650.06;5063861;28;20379;-60
2023/05/22 07:05:34;;;;;;;10.25;8.90;;;;;;;31.19;40.75;93645.94;5048186;28;20037;-63
2023/05/22 07:08:01;;;;;;;9.63;8.35;;;;;;;33.21;36.04;93646.47;5047551;28;20051;-61
2023/05/22 07:10:27;;;;;;;10.32;9.32;;;;;;;28.96;44.34;93648.59;5047923;28;20039;-59
2023/05/22 07:12:54;;;;;;;11.88;9.93;;;;;;;30.56;39.20;93648.13;5048028;28;20033;-60
2023/05/22 07:15:21;;;;;;;9.47;8.10;;;;;;;32.28;38.65;93639.31;5047461;28;20033;-61
2023/05/22 07:17:48;;;;;;;10.40;8.93;;;;;;;32.74;36.59;93644.25;5053161;28;20056;-60
2023/05/22 07:20:16;;;;;;;9.52;7.85;;;;;;;34.92;33.26;93650.69;5046758;28;20048;-61
2023/05/22 07:22:43;;;;;;;12.50;9.55;;;;;;;31.09;38.71;93650.59;5068084;28;20078;-62
2023/05/22 07:25:10;;;;;;;10.27;9.20;;;;;;;30.99;39.95;93653.19;5066757;28;20037;-59
2023/05/22 07:27:36;;;;;;;10.30;8.63;;;;;;;31.22;40.79;93649.72;5041088;28;20041;-60
2023/05/22 07:30:04;;;;;;;11.02;9.88;;;;;;;27.69;46.54;93650.41;5063387;28;20049;-59
2023/05/22 07:32:31;;;;;;;11.70;9.90;;;;;;;30.24;43.16;93651.97;5049557;28;20041;-63
2023/05/22 07:34:57;;;;;;;10.82;9.70;;;;;;;31.45;40.12;93652.69;5052619;28;20044;-61
2023/05/22 07:37:24;;;;;;;11.45;10.25;;;;;;;29.04;44.13;93646.63;5066189;28;20044;-58
2023/05/22 07:39:51;;;;;;;11.43;10.23;;;;;;;27.97;45.70;93645.66;5058638;28;20036;-59
2023/05/22 07:42:18;;;;;;;13.02;10.30;;;;;;;26.30;51.62;93655.09;5066389;28;20049;-62
2023/05/22 07:44:44;;;;;;;13.27;9.88;;;;;;;30.82;41.92;93653.59;5067342;28;20049;-60
2023/05/22 07:47:11;;;;;;;11.45;9.55;;;;;;;34.17;35.79;93647.84;5057962;28;20043;-60
2023/05/22 07:49:38;;;;;;;11.02;9.82;;;;;;;27.12;49.06;93646.03;5056438;28;20033;-63
2023/05/22 07:52:05;;;;;;;12.20;10.90;;;;;;;25.44;54.29;93653.41;5070976;28;20374;-59
2023/05/22 07:54:32;;;;;;;12.23;10.93;;;;;;;24.15;62.30;93653.75;5051196;28;20040;-59
2023/05/22 07:57:02;;;;;;;11.75;10.50;;;;;;;28.34;49.86;93650.44;5051068;28;20041;-61
2023/05/22 07:59:28;;;;;;;12.55;10.15;;;;;;;27.42;51.67;93640.28;5057719;28;20666;-60
2023/05/22 08:01:56;;;;;;;11.70;9.88;;;;;;;28.27;49.52;93646.22;5071147;28;20040;-62
2023/05/22 08:04:24;;;;;;;12.30;10.40;;;;;;;27.36;48.04;93640.38;5062567;28;20129;-62
2023/05/22 08:06:52;;;;;;;10.63;9.20;;;;;;;28.71;48.74;93645.19;5064327;28;20043;-60
2023/05/22 08:09:20;;;;;;;10.95;9.85;;;;;;;27.80;49.07;93641.03;5041556;28;20044;-63
2023/05/22 08:11:47;;;;;;;13.23;9.88;;;;;;;27.01;54.44;93647.72;5057632;28;20404;-62
2023/05/22 08:14:14;;;;;;;11.10;10.00;;;;;;;27.57;51.21;93631.38;5061508;28;20068;-60
2023/05/22 08:16:40;;;;;;;14.50;9.90;;;;;;;26.47;55.94;93640.84;5051099;28;20055;-58
2023/05/22 08:19:07;;;;;;;11.45;10.00;;;;;;;25.91;56.41;93646.97;5050297;28;20580;-66
2023/05/22 08:21:36;;;;;;;12.32;10.30;;;;;;;26.01;56.41;93645.34;5050921;28;20052;-62
2023/05/22 08:24:03;;;;;;;10.75;9.43;;;;;;;28.66;50.46;93633.47;5050315;28;20045;-63
2023/05/22 08:26:32;;;;;;;9.73;8.65;;;;;;;29.84;48.52;93632.34;5054427;28;20550;-60
2023/05/22 08:28:59;;;;;;;10.37;9.37;;;;;;;28.58;48.53;93637.50;5070285;28;20045;-60
2023/05/22 08:31:29;;;;;;;12.35;9.63;;;;;;;28.11;49.52;93638.78;5052320;28;21655;-59
2023/05/22 08:34:01;;;;;;;10.32;8.50;;;;;;;28.86;46.80;93636.97;5062651;28;20194;-62
2023/05/22 08:36:30;;;;;;;9.05;8.15;;;;;;;27.12;48.73;93641.16;5064500;28;20672;-61
2023/05/22 08:38:57;;;;;;;9.10;8.20;;;;;;;27.17;48.39;93633.97;5046014;28;20037;-59
2023/05/22 08:41:24;;;;;;;9.67;8.40;;;;;;;26.77;50.40;93628.78;5055904;28;20038;-59
2023/05/22 08:43:51;;;;;;;9.93;7.53;;;;;;;27.37;47.67;93630.63;5070115;28;20087;-59
2023/05/22 08:46:18;;;;;;;8.25;7.07;;;;;;;30.41;41.11;93631.78;5068493;28;20049;-60
2023/05/22 08:48:46;;;;;;;9.43;7.90;;;;;;;28.16;42.60;93626.63;5052439;28;20048;-60
2023/05/22 08:51:18;;;;;;;10.32;8.40;;;;;;;26.77;46.40;93630.84;5069304;28;20093;-58
2023/05/22 08:53:45;;;;;;;9.30;8.33;;;;;;;28.06;42.64;93631.91;5065665;28;20044;-61
2023/05/22 08:56:11;;;;;;;9.95;8.10;;;;;;;28.95;39.72;93632.94;5068000;28;20657;-62
2023/05/22 08:58:39;;;;;;;8.90;8.00;;;;;;;28.86;38.75;93628.50;5058956;28;20046;-60
2023/05/22 09:01:07;;;;;;;8.98;7.43;;;;;;;28.75;39.67;93625.88;5054495;28;20067;-62
2023/05/22 09:03:35;;;;;;;8.32;7.40;;;;;;;30.04;35.50;93622.34;5032687;28;20110;-59
2023/05/22 09:06:03;;;;;;;8.10;7.20;;;;;;;28.46;39.01;93626.38;5050893;28;20072;-59
2023/05/22 09:08:30;;;;;;;7.95;7.15;;;;;;;30.95;34.66;93630.13;5062750;28;20124;-58
2023/05/22 09:10:56;;;;;;;10.77;7.50;;;;;;;28.25;38.64;93633.91;5059442;28;20420;-59
2023/05/22 09:13:28;;;;;;;7.50;6.60;;;;;;;29.35;37.72;93624.44;5055031;28;20070;-58
2023/05/22 09:16:07;;;;;;;8.45;6.43;;;;;;;33.45;32.63;93626.50;5065831;28;20107;-64
2023/05/22 09:18:38;;;;;;;8.33;6.90;;;;;;;31.61;34.45;93616.63;5054702;28;20075;-59
2023/05/22 09:21:06;;;;;;;7.60;6.22;;;;;;;35.17;28.97;93616.41;5049940;28;20037;-64
2023/05/22 09:23:52;;;;;;;8.45;6.53;;;;;;;36.76;26.18;93616.22;5049675;28;20033;-59
2023/05/22 09:26:20;;;;;;;7.40;6.00;;;;;;;35.88;26.56;93617.88;5048947;28;20047;-60
2023/05/22 09:28:46;;;;;;;9.43;6.22;;;;;;;36.59;25.10;93610.56;5049597;28;20041;-60
2023/05/22 09:31:13;;;;;;;7.30;6.10;;;;;;;33.61;27.80;93613.72;5055468;28;20047;-58
2023/05/22 09:33:43;;;;;;;7.30;6.40;;;;;;;32.73;29.18;93608.66;5056904;28;20041;-59
2023/05/22 09:36:09;;;;;;;12.35;5.72;;;;;;;33.38;27.74;93608.91;5057570;28;20380;-59
2023/05/22 09:38:37;;;;;;;7.30;5.70;;;;;;;31.49;30.33;93609.78;5064503;28;20049;-60
2023/05/22 09:41:04;;;;;;;6.70;5.82;;;;;;;33.99;28.32;93607.84;5049957;28;20381;-59
2023/05/22 09:43:32;;;;;;;7.30;6.07;;;;;;;34.43;27.58;93606.63;5052104;28;20167;-59
2023/05/22 09:46:00;;;;;;;6.60;5.60;;;;;;;36.10;25.28;93607.47;5062271;28;20397;-59
2023/05/22 09:48:27;;;;;;;7.15;5.90;;;;;;;31.86;30.38;93599.88;5048353;28;20037;-59
2023/05/22 09:50:58;;;;;;;7.82;6.55;;;;;;;28.66;34.61;93599.59;5031362;28;20045;-62
2023/05/22 09:53:27;;;;;;;7.55;6.70;;;;;;;28.75;34.31;93606.09;5030693;28;20059;-62
2023/05/22 09:56:00;;;;;;;8.13;6.87;;;;;;;31.00;31.45;93608.59;5049113;28;20053;-58
2023/05/22 09:58:30;;;;;;;7.55;6.70;;;;;;;30.31;32.48;93608.88;5048162;28;20575;-58
2023/05/22 10:00:58;;;;;;;8.10;6.30;;;;;;;34.57;27.96;93596.44;5062324;28;20113;-62
2023/05/22 10:03:26;;;;;;;7.03;6.30;;;;;;;34.98;26.20;93601.97;5048154;28;20033;-59
2023/05/22 10:05:55;;;;;;;7.00;6.30;;;;;;;32.74;27.64;93593.09;5048632;28;20049;-58
2023/05/22 10:08:27;;;;;;;7.43;6.20;;;;;;;33.37;27.56;93598.84;5048354;28;20170;-59
2023/05/22 10:10:54;;;;;;;6.97;6.28;;;;;;;34.50;26.61;93597.25;5030976;28;20071;-59
2023/05/22 10:13:24;;;;;;;7.97;6.10;;;;;;;36.07;25.08;93591.53;5054189;28;20037;-60
2023/05/22 10:15:52;;;;;;;8.05;5.90;;;;;;;33.85;26.91;93589.53;5067310;28;20063;-61
2023/05/22 10:18:19;;;;;;;7.55;6.55;;;;;;;34.58;25.65;93591.47;5037975;28;20449;-58
2023/05/22 10:20:47;;;;;;;7.20;6.30;;;;;;;34.74;26.97;93594.97;5055184;28;20037;-60
2023/05/22 10:23:16;;;;;;;8.13;6.85;;;;;;;32.56;29.95;93601.47;5047966;28;20041;-58
2023/05/22 10:25:45;;;;;;;8.57;7.05;;;;;;;30.78;33.22;93598.63;5048568;28;20071;-62
2023/05/22 10:28:20;;;;;;;9.95;7.40;;;;;;;30.05;34.39;93599.19;5047632;28;20169;-58
2023/05/22 10:30:55;;;;;;;9.65;8.02;;;;;;;27.88;39.96;93598.88;5061891;28;20044;-57
2023/05/22 10:33:26;;;;;;;12.10;8.73;;;;;;;25.50;46.93;93600.75;5047459;28;20173;-58
2023/05/22 10:35:56;;;;;;;9.38;8.38;;;;;;;26.42;46.91;93598.69;5038497;28;20048;-57
2023/05/22 10:38:55;;;;;;;10.05;8.10;;;;;;;27.26;44.87;93589.28;5053329;28;20054;-61
2023/05/22 10:41:23;;;;;;;11.20;8.65;;;;;;;27.77;43.98;93590.56;5013907;28;20032;-58
2023/05/22 10:43:50;;;;;;;11.15;8.45;;;;;;;26.65;47.29;93594.38;5060713;28;20057;-60
2023/05/22 10:46:17;;;;;;;12.70;8.43;;;;;;;27.05;46.89;93586.22;5054167;28;20473;-61
2023/05/22 10:48:50;;;;;;;10.82;8.35;;;;;;;26.05;50.28;93595.22;5067802;28;20076;-61
2023/05/22 10:51:19;;;;;;;10.27;8.10;;;;;;;27.74;45.74;93583.97;5062570;28;20394;-58
2023/05/22 10:54:01;;;;;;;10.18;8.00;;;;;;;28.33;43.26;93583.25;5044439;28;20053;-61
2023/05/22 10:56:34;;;;;;;9.30;7.47;;;;;;;29.00;40.47;93576.31;5047109;28;20130;-58
2023/05/22 10:59:06;;;;;;;10.17;8.33;;;;;;;29.52;39.69;93581.66;5046902;28;20048;-62
2023/05/22 11:01:36;;;;;;;9.25;7.88;;;;;;;29.48;40.76;93585.59;5047391;28;20049;-58
2023/05/22 11:04:04;;;;;;;9.77;8.07;;;;;;;28.93;40.12;93573.41;5060006;28;20037;-62
2023/05/22 11:06:44;;;;;;;8.40;7.32;;;;;;;29.78;39.55;93584.41;5058137;28;20473;-58
2023/05/22 11:09:31;;;;;;;9.07;7.00;;;;;;;29.56;39.03;93574.38;5047005;28;20063;-60
2023/05/22 11:12:23;;;;;;;8.40;7.13;;;;;;;29.41;39.18;93571.38;5042726;28;20048;-58
2023/05/22 11:14:55;;;;;;;10.35;7.15;;;;;;;29.08;38.38;93571.53;5046721;28;20071;-58
2023/05/22 11:17:27;;;;;;;10.48;7.32;;;;;;;28.71;38.61;93564.06;5046063;28;20102;-60
2023/05/22 11:20:10;;;;;;;9.10;7.50;;;;;;;29.12;40.15;93559.94;5060259;28;20071;-61
2023/05/22 11:22:42;;;;;;;8.45;7.53;;;;;;;29.63;39.44;93556.69;5054648;28;20694;-58
2023/05/22 11:25:15;;;;;;;9.83;7.43;;;;;;;30.56;37.10;93552.59;5069744;28;20120;-60